RYR9ZE LGSA-EPKK
Flight info
| Callsign | RYR9ZE |
|---|---|
| Flight time | N/A |
| Altitude | 36000 |
| Route | SOKRI UY151 VELOP DCT ATV UM749 SKP UL617 BAMOS DCT PEREN DCT ATFIR N133 USALI DCT ERDOM DCT NARKA DCT KSC DCT KOJOT DCT RAZEC N133 LENOV |
| Aircraft | B738/M-SDE2E3FGHIRWXY/LB1 |
Departure
| Time | 2026-05-01 09:51 |
|---|---|
| Airport | Chania International Airport (LGSA) |
Arrival
| Time | N/A |
|---|---|
| Airport | Kraków John Paul II International Airport (EPKK) |
| Time | Latitude | Longitude | Altitude | Speed | Heading |
|---|---|---|---|---|---|
| 2026-05-01 09:41 | 35.53829 | 24.13982 | 438 ft | 0 kts | 37° |
| 2026-05-01 09:48 | 35.53834 | 24.13983 | 438 ft | 2 kts | 9° |
| 2026-05-01 09:49 | 35.53841 | 24.13959 | 433 ft | 5 kts | 253° |
| 2026-05-01 09:49 | 35.53827 | 24.13885 | 437 ft | 12 kts | 260° |
| 2026-05-01 09:49 | 35.53777 | 24.13775 | 435 ft | 17 kts | 234° |
| 2026-05-01 09:49 | 35.53790 | 24.13671 | 430 ft | 13 kts | 288° |
| 2026-05-01 09:50 | 35.53815 | 24.13539 | 429 ft | 16 kts | 258° |
| 2026-05-01 09:50 | 35.53714 | 24.13453 | 427 ft | 21 kts | 204° |
| 2026-05-01 09:50 | 35.53618 | 24.13608 | 424 ft | 49 kts | 112° |
| 2026-05-01 09:50 | 35.53409 | 24.14256 | 442 ft | 112 kts | 111° |
| 2026-05-01 09:51 | 35.53042 | 24.15342 | 542 ft | 155 kts | 110° |
| 2026-05-01 09:51 | 35.52635 | 24.16578 | 1139 ft | 159 kts | 104° |
| 2026-05-01 09:51 | 35.52233 | 24.17873 | 1787 ft | 166 kts | 108° |
| 2026-05-01 09:51 | 35.51764 | 24.19302 | 2112 ft | 195 kts | 106° |
| 2026-05-01 09:52 | 35.51700 | 24.20954 | 2467 ft | 202 kts | 66° |
| 2026-05-01 09:52 | 35.52554 | 24.22374 | 2715 ft | 220 kts | 38° |
| 2026-05-01 09:52 | 35.54055 | 24.23068 | 2949 ft | 244 kts | 4° |
| 2026-05-01 09:52 | 35.55754 | 24.22595 | 3457 ft | 261 kts | 330° |
| 2026-05-01 09:53 | 35.57198 | 24.21229 | 4262 ft | 263 kts | 318° |
| 2026-05-01 09:53 | 35.58106 | 24.20240 | 4789 ft | 265 kts | 316° |
| 2026-05-01 09:53 | 35.59466 | 24.18734 | 5747 ft | 258 kts | 315° |
| 2026-05-01 09:53 | 35.60794 | 24.17266 | 6633 ft | 259 kts | 315° |
| 2026-05-01 09:54 | 35.62150 | 24.15776 | 7299 ft | 263 kts | 315° |
| 2026-05-01 09:54 | 35.63523 | 24.14280 | 8063 ft | 265 kts | 316° |
| 2026-05-01 09:54 | 35.64914 | 24.12774 | 8810 ft | 268 kts | 315° |
| 2026-05-01 09:54 | 35.66320 | 24.11258 | 9593 ft | 270 kts | 315° |
| 2026-05-01 09:55 | 35.67738 | 24.09734 | 10322 ft | 273 kts | 315° |
| 2026-05-01 09:55 | 35.69222 | 24.08137 | 10544 ft | 295 kts | 315° |
| 2026-05-01 09:55 | 35.70819 | 24.06418 | 10718 ft | 316 kts | 315° |
| 2026-05-01 09:55 | 35.72509 | 24.04606 | 11135 ft | 327 kts | 315° |
| 2026-05-01 09:56 | 35.74239 | 24.02758 | 11796 ft | 330 kts | 315° |
| 2026-05-01 09:56 | 35.75976 | 24.00904 | 12537 ft | 332 kts | 315° |
| 2026-05-01 09:56 | 35.77727 | 23.99035 | 13277 ft | 334 kts | 315° |
| 2026-05-01 09:56 | 35.79490 | 23.97152 | 13991 ft | 337 kts | 315° |
| 2026-05-01 09:57 | 35.81270 | 23.95247 | 14654 ft | 340 kts | 315° |
| 2026-05-01 09:57 | 35.83065 | 23.93326 | 15337 ft | 343 kts | 315° |
| 2026-05-01 09:57 | 35.84870 | 23.91392 | 16022 ft | 346 kts | 315° |
| 2026-05-01 09:57 | 35.86668 | 23.89464 | 16686 ft | 349 kts | 315° |
| 2026-05-01 09:58 | 35.88491 | 23.87472 | 17354 ft | 351 kts | 314° |
| 2026-05-01 09:58 | 35.90308 | 23.85448 | 18009 ft | 355 kts | 314° |
| 2026-05-01 09:58 | 35.92157 | 23.83399 | 18627 ft | 358 kts | 314° |
| 2026-05-01 09:58 | 35.94023 | 23.81357 | 19245 ft | 359 kts | 314° |
| 2026-05-01 09:59 | 35.95900 | 23.79324 | 19886 ft | 359 kts | 314° |
| 2026-05-01 09:59 | 35.97787 | 23.77292 | 20523 ft | 360 kts | 314° |
| 2026-05-01 09:59 | 35.99684 | 23.75258 | 21130 ft | 362 kts | 314° |